sensor_id;sensor_type;location;lat;lon;timestamp;temperature;humidity
39189;DHT22;24915;50.858;4.376;2022-07-23T00:00:59;18.50;99.90
39189;DHT22;24915;50.858;4.376;2022-07-23T00:03:24;18.50;99.90
39189;DHT22;24915;50.858;4.376;2022-07-23T00:05:50;18.50;99.90
39189;DHT22;24915;50.858;4.376;2022-07-23T00:08:16;18.40;99.90
39189;DHT22;24915;50.858;4.376;2022-07-23T00:10:42;18.40;99.90
39189;DHT22;24915;50.858;4.376;2022-07-23T00:13:07;18.40;99.90
39189;DHT22;24915;50.858;4.376;2022-07-23T00:15:33;18.40;99.90
39189;DHT22;24915;50.858;4.376;2022-07-23T00:17:59;18.40;99.90
39189;DHT22;24915;50.858;4.376;2022-07-23T00:20:24;18.40;99.90
39189;DHT22;24915;50.858;4.376;2022-07-23T00:22:53;18.40;99.90
39189;DHT22;24915;50.858;4.376;2022-07-23T00:25:20;18.40;99.90
39189;DHT22;24915;50.858;4.376;2022-07-23T00:27:46;18.40;99.90
39189;DHT22;24915;50.858;4.376;2022-07-23T00:30:12;18.30;99.90
39189;DHT22;24915;50.858;4.376;2022-07-23T00:32:53;18.30;99.90
39189;DHT22;24915;50.858;4.376;2022-07-23T00:35:20;18.30;99.90
39189;DHT22;24915;50.858;4.376;2022-07-23T00:37:46;18.30;99.90
39189;DHT22;24915;50.858;4.376;2022-07-23T00:40:12;18.30;99.90
39189;DHT22;24915;50.858;4.376;2022-07-23T00:42:38;18.30;99.90
39189;DHT22;24915;50.858;4.376;2022-07-23T00:45:04;18.20;99.90
39189;DHT22;24915;50.858;4.376;2022-07-23T00:47:30;18.20;99.90
39189;DHT22;24915;50.858;4.376;2022-07-23T00:49:56;18.20;99.90
39189;DHT22;24915;50.858;4.376;2022-07-23T00:52:22;18.20;99.90
39189;DHT22;24915;50.858;4.376;2022-07-23T00:54:48;18.10;99.90
39189;DHT22;24915;50.858;4.376;2022-07-23T00:57:14;18.10;99.90
39189;DHT22;24915;50.858;4.376;2022-07-23T00:59:40;18.10;99.90
39189;DHT22;24915;50.858;4.376;2022-07-23T01:02:06;18.10;99.90
39189;DHT22;24915;50.858;4.376;2022-07-23T01:04:31;18.10;99.90
39189;DHT22;24915;50.858;4.376;2022-07-23T01:06:57;18.10;99.90
39189;DHT22;24915;50.858;4.376;2022-07-23T01:09:23;18.10;99.90
39189;DHT22;24915;50.858;4.376;2022-07-23T01:11:50;18.10;99.90
39189;DHT22;24915;50.858;4.376;2022-07-23T01:14:17;18.10;99.90
39189;DHT22;24915;50.858;4.376;2022-07-23T01:16:44;18.00;99.90
39189;DHT22;24915;50.858;4.376;2022-07-23T01:19:11;18.00;99.90
39189;DHT22;24915;50.858;4.376;2022-07-23T01:21:38;17.90;99.90
39189;DHT22;24915;50.858;4.376;2022-07-23T01:24:05;17.90;99.90
39189;DHT22;24915;50.858;4.376;2022-07-23T01:26:31;17.90;99.90
39189;DHT22;24915;50.858;4.376;2022-07-23T01:28:56;17.90;99.90
39189;DHT22;24915;50.858;4.376;2022-07-23T01:31:22;17.80;99.90
39189;DHT22;24915;50.858;4.376;2022-07-23T01:33:48;17.80;99.90
39189;DHT22;24915;50.858;4.376;2022-07-23T01:36:14;17.80;99.90
39189;DHT22;24915;50.858;4.376;2022-07-23T01:38:40;17.80;99.90
39189;DHT22;24915;50.858;4.376;2022-07-23T01:41:05;17.80;99.90
39189;DHT22;24915;50.858;4.376;2022-07-23T01:43:31;17.80;99.90
39189;DHT22;24915;50.858;4.376;2022-07-23T01:45:56;17.80;99.90
39189;DHT22;24915;50.858;4.376;2022-07-23T01:48:22;17.80;99.90
39189;DHT22;24915;50.858;4.376;2022-07-23T01:50:48;17.70;99.90
39189;DHT22;24915;50.858;4.376;2022-07-23T01:53:14;17.60;99.90
39189;DHT22;24915;50.858;4.376;2022-07-23T01:55:40;17.60;99.90
39189;DHT22;24915;50.858;4.376;2022-07-23T01:58:06;17.60;99.90
39189;DHT22;24915;50.858;4.376;2022-07-23T02:00:32;17.60;99.90
39189;DHT22;24915;50.858;4.376;2022-07-23T02:02:57;17.60;99.90
39189;DHT22;24915;50.858;4.376;2022-07-23T02:05:26;17.60;99.90
39189;DHT22;24915;50.858;4.376;2022-07-23T02:07:54;17.60;99.90
39189;DHT22;24915;50.858;4.376;2022-07-23T02:10:20;17.60;99.90
39189;DHT22;24915;50.858;4.376;2022-07-23T02:12:46;17.60;99.90
39189;DHT22;24915;50.858;4.376;2022-07-23T02:15:12;17.60;99.90
39189;DHT22;24915;50.858;4.376;2022-07-23T02:17:37;17.60;99.90
39189;DHT22;24915;50.858;4.376;2022-07-23T02:20:04;17.60;99.90
39189;DHT22;24915;50.858;4.376;2022-07-23T02:22:30;17.50;99.90
39189;DHT22;24915;50.858;4.376;2022-07-23T02:24:56;17.50;99.90
39189;DHT22;24915;50.858;4.376;2022-07-23T02:27:21;17.50;99.90
39189;DHT22;24915;50.858;4.376;2022-07-23T02:29:48;17.50;99.90
39189;DHT22;24915;50.858;4.376;2022-07-23T02:32:14;17.50;99.90
39189;DHT22;24915;50.858;4.376;2022-07-23T02:34:40;17.60;99.90
39189;DHT22;24915;50.858;4.376;2022-07-23T02:37:05;17.50;99.90
39189;DHT22;24915;50.858;4.376;2022-07-23T02:39:31;17.50;99.90
39189;DHT22;24915;50.858;4.376;2022-07-23T02:41:57;17.50;99.90
39189;DHT22;24915;50.858;4.376;2022-07-23T02:44:22;17.50;99.90
39189;DHT22;24915;50.858;4.376;2022-07-23T02:46:48;17.50;99.90
39189;DHT22;24915;50.858;4.376;2022-07-23T02:49:13;17.50;99.90
39189;DHT22;24915;50.858;4.376;2022-07-23T02:51:39;17.50;99.90
39189;DHT22;24915;50.858;4.376;2022-07-23T02:54:05;17.40;99.90
39189;DHT22;24915;50.858;4.376;2022-07-23T02:56:30;17.40;99.90
39189;DHT22;24915;50.858;4.376;2022-07-23T02:58:56;17.40;99.90
39189;DHT22;24915;50.858;4.376;2022-07-23T03:01:21;17.40;99.90
39189;DHT22;24915;50.858;4.376;2022-07-23T03:03:47;17.40;99.90
39189;DHT22;24915;50.858;4.376;2022-07-23T03:06:13;17.40;99.90
39189;DHT22;24915;50.858;4.376;2022-07-23T03:08:39;17.40;99.90
39189;DHT22;24915;50.858;4.376;2022-07-23T03:11:04;17.40;99.90
39189;DHT22;24915;50.858;4.376;2022-07-23T03:13:39;17.40;99.90
39189;DHT22;24915;50.858;4.376;2022-07-23T03:16:06;17.30;99.90
39189;DHT22;24915;50.858;4.376;2022-07-23T03:18:32;17.30;99.90
39189;DHT22;24915;50.858;4.376;2022-07-23T03:20:58;17.30;99.90
39189;DHT22;24915;50.858;4.376;2022-07-23T03:23:24;17.30;99.90
39189;DHT22;24915;50.858;4.376;2022-07-23T03:25:50;17.30;99.90
39189;DHT22;24915;50.858;4.376;2022-07-23T03:28:16;17.30;99.90
39189;DHT22;24915;50.858;4.376;2022-07-23T03:30:44;17.30;99.90
39189;DHT22;24915;50.858;4.376;2022-07-23T03:33:12;17.30;99.90
39189;DHT22;24915;50.858;4.376;2022-07-23T03:35:38;17.20;99.90
39189;DHT22;24915;50.858;4.376;2022-07-23T03:38:04;17.20;99.90
39189;DHT22;24915;50.858;4.376;2022-07-23T03:40:30;17.20;99.90
39189;DHT22;24915;50.858;4.376;2022-07-23T03:42:55;17.20;99.90
39189;DHT22;24915;50.858;4.376;2022-07-23T03:45:21;17.30;99.90
39189;DHT22;24915;50.858;4.376;2022-07-23T03:47:46;17.30;99.90
39189;DHT22;24915;50.858;4.376;2022-07-23T03:50:12;17.30;99.90
39189;DHT22;24915;50.858;4.376;2022-07-23T03:52:38;17.20;99.90
39189;DHT22;24915;50.858;4.376;2022-07-23T03:55:04;17.30;99.90
39189;DHT22;24915;50.858;4.376;2022-07-23T03:57:30;17.30;99.90
39189;DHT22;24915;50.858;4.376;2022-07-23T03:59:56;17.30;99.90
39189;DHT22;24915;50.858;4.376;2022-07-23T04:02:21;17.30;99.90
39189;DHT22;24915;50.858;4.376;2022-07-23T04:04:47;17.30;99.90
39189;DHT22;24915;50.858;4.376;2022-07-23T04:07:14;17.30;99.90
39189;DHT22;24915;50.858;4.376;2022-07-23T04:09:39;17.30;99.90
39189;DHT22;24915;50.858;4.376;2022-07-23T04:12:06;17.30;99.90
39189;DHT22;24915;50.858;4.376;2022-07-23T04:14:33;17.30;99.90
39189;DHT22;24915;50.858;4.376;2022-07-23T04:16:59;17.30;99.90
39189;DHT22;24915;50.858;4.376;2022-07-23T04:19:25;17.30;99.90
39189;DHT22;24915;50.858;4.376;2022-07-23T04:21:51;17.40;99.90
39189;DHT22;24915;50.858;4.376;2022-07-23T04:24:17;17.30;99.90
39189;DHT22;24915;50.858;4.376;2022-07-23T04:26:43;17.40;99.90
39189;DHT22;24915;50.858;4.376;2022-07-23T04:29:09;17.40;99.90
39189;DHT22;24915;50.858;4.376;2022-07-23T04:31:35;17.40;99.90
39189;DHT22;24915;50.858;4.376;2022-07-23T04:34:00;17.40;99.90
39189;DHT22;24915;50.858;4.376;2022-07-23T04:36:26;17.40;99.90
39189;DHT22;24915;50.858;4.376;2022-07-23T04:38:52;17.40;99.90
39189;DHT22;24915;50.858;4.376;2022-07-23T04:41:18;17.50;99.90
39189;DHT22;24915;50.858;4.376;2022-07-23T04:43:44;17.50;99.90
39189;DHT22;24915;50.858;4.376;2022-07-23T04:46:09;17.50;99.90
39189;DHT22;24915;50.858;4.376;2022-07-23T04:48:36;17.50;99.90
39189;DHT22;24915;50.858;4.376;2022-07-23T04:51:02;17.50;99.90
39189;DHT22;24915;50.858;4.376;2022-07-23T04:53:27;17.60;99.90
39189;DHT22;24915;50.858;4.376;2022-07-23T04:55:53;17.60;99.90
39189;DHT22;24915;50.858;4.376;2022-07-23T04:58:19;17.60;99.90
39189;DHT22;24915;50.858;4.376;2022-07-23T05:00:44;17.70;99.90
39189;DHT22;24915;50.858;4.376;2022-07-23T05:03:10;17.80;99.90
39189;DHT22;24915;50.858;4.376;2022-07-23T05:05:36;17.80;99.90
39189;DHT22;24915;50.858;4.376;2022-07-23T05:08:01;17.90;99.90
39189;DHT22;24915;50.858;4.376;2022-07-23T05:10:27;18.00;99.90
39189;DHT22;24915;50.858;4.376;2022-07-23T05:12:53;18.00;99.90
39189;DHT22;24915;50.858;4.376;2022-07-23T05:15:18;18.20;99.90
39189;DHT22;24915;50.858;4.376;2022-07-23T05:17:44;18.20;99.90
39189;DHT22;24915;50.858;4.376;2022-07-23T05:20:10;18.30;99.90
39189;DHT22;24915;50.858;4.376;2022-07-23T05:22:35;18.30;99.90
39189;DHT22;24915;50.858;4.376;2022-07-23T05:25:01;18.40;99.90
39189;DHT22;24915;50.858;4.376;2022-07-23T05:27:27;18.40;99.90
39189;DHT22;24915;50.858;4.376;2022-07-23T05:29:53;18.40;99.90
39189;DHT22;24915;50.858;4.376;2022-07-23T05:32:18;18.50;99.90
39189;DHT22;24915;50.858;4.376;2022-07-23T05:34:44;18.50;99.90
39189;DHT22;24915;50.858;4.376;2022-07-23T05:37:09;18.40;99.90
39189;DHT22;24915;50.858;4.376;2022-07-23T05:39:35;18.50;99.90
39189;DHT22;24915;50.858;4.376;2022-07-23T05:42:01;18.40;99.90
39189;DHT22;24915;50.858;4.376;2022-07-23T05:44:27;18.40;99.90
39189;DHT22;24915;50.858;4.376;2022-07-23T05:46:53;18.40;99.90
39189;DHT22;24915;50.858;4.376;2022-07-23T05:49:18;18.40;99.90
39189;DHT22;24915;50.858;4.376;2022-07-23T05:51:44;18.40;99.90
39189;DHT22;24915;50.858;4.376;2022-07-23T05:54:10;18.40;99.90
39189;DHT22;24915;50.858;4.376;2022-07-23T05:56:36;18.40;99.90
39189;DHT22;24915;50.858;4.376;2022-07-23T05:59:02;18.60;99.90
39189;DHT22;24915;50.858;4.376;2022-07-23T06:01:27;18.60;99.90
39189;DHT22;24915;50.858;4.376;2022-07-23T06:03:53;18.80;99.90
39189;DHT22;24915;50.858;4.376;2022-07-23T06:06:19;18.80;99.90
39189;DHT22;24915;50.858;4.376;2022-07-23T06:08:44;19.00;99.90
39189;DHT22;24915;50.858;4.376;2022-07-23T06:11:10;19.10;99.90
39189;DHT22;24915;50.858;4.376;2022-07-23T06:13:36;19.20;99.90
39189;DHT22;24915;50.858;4.376;2022-07-23T06:16:02;19.30;99.90
39189;DHT22;24915;50.858;4.376;2022-07-23T06:18:27;19.50;99.90
39189;DHT22;24915;50.858;4.376;2022-07-23T06:20:53;19.60;99.90
39189;DHT22;24915;50.858;4.376;2022-07-23T06:23:19;19.70;99.90
39189;DHT22;24915;50.858;4.376;2022-07-23T06:25:45;19.80;99.90
39189;DHT22;24915;50.858;4.376;2022-07-23T06:28:11;20.00;99.90
39189;DHT22;24915;50.858;4.376;2022-07-23T06:30:36;20.10;99.90
39189;DHT22;24915;50.858;4.376;2022-07-23T06:33:02;20.20;99.90
39189;DHT22;24915;50.858;4.376;2022-07-23T06:35:28;20.40;99.90
39189;DHT22;24915;50.858;4.376;2022-07-23T06:37:54;20.50;99.90
39189;DHT22;24915;50.858;4.376;2022-07-23T06:40:19;20.70;99.90
39189;DHT22;24915;50.858;4.376;2022-07-23T06:42:45;20.70;99.90
39189;DHT22;24915;50.858;4.376;2022-07-23T06:45:11;20.80;99.90
39189;DHT22;24915;50.858;4.376;2022-07-23T06:47:37;21.00;99.90
39189;DHT22;24915;50.858;4.376;2022-07-23T06:50:03;21.20;99.90
39189;DHT22;24915;50.858;4.376;2022-07-23T06:52:28;21.30;99.90
39189;DHT22;24915;50.858;4.376;2022-07-23T06:54:54;21.50;99.90
39189;DHT22;24915;50.858;4.376;2022-07-23T06:57:20;21.60;99.90
39189;DHT22;24915;50.858;4.376;2022-07-23T06:59:45;21.60;99.90
39189;DHT22;24915;50.858;4.376;2022-07-23T07:02:11;21.80;99.90
39189;DHT22;24915;50.858;4.376;2022-07-23T07:04:36;21.90;99.90
39189;DHT22;24915;50.858;4.376;2022-07-23T07:07:02;22.10;99.90
39189;DHT22;24915;50.858;4.376;2022-07-23T07:09:28;22.10;99.90
39189;DHT22;24915;50.858;4.376;2022-07-23T07:11:53;22.20;99.90
39189;DHT22;24915;50.858;4.376;2022-07-23T07:14:19;22.30;99.90
39189;DHT22;24915;50.858;4.376;2022-07-23T07:16:45;22.30;99.90
39189;DHT22;24915;50.858;4.376;2022-07-23T07:19:10;22.50;99.90
39189;DHT22;24915;50.858;4.376;2022-07-23T07:21:36;22.70;99.90
39189;DHT22;24915;50.858;4.376;2022-07-23T07:24:01;22.80;99.90
39189;DHT22;24915;50.858;4.376;2022-07-23T07:26:27;23.00;99.90
39189;DHT22;24915;50.858;4.376;2022-07-23T07:28:53;23.00;99.90
39189;DHT22;24915;50.858;4.376;2022-07-23T07:31:18;23.10;99.90
39189;DHT22;24915;50.858;4.376;2022-07-23T07:33:44;23.10;99.90
39189;DHT22;24915;50.858;4.376;2022-07-23T07:36:10;23.10;99.90
39189;DHT22;24915;50.858;4.376;2022-07-23T07:38:36;23.20;99.90
39189;DHT22;24915;50.858;4.376;2022-07-23T07:41:01;23.20;99.90
39189;DHT22;24915;50.858;4.376;2022-07-23T07:43:27;23.40;99.90
39189;DHT22;24915;50.858;4.376;2022-07-23T07:45:53;23.50;99.90
39189;DHT22;24915;50.858;4.376;2022-07-23T07:48:18;23.70;99.90
39189;DHT22;24915;50.858;4.376;2022-07-23T07:50:44;23.90;99.90
39189;DHT22;24915;50.858;4.376;2022-07-23T07:53:10;23.90;99.90
39189;DHT22;24915;50.858;4.376;2022-07-23T07:55:35;24.10;99.90
39189;DHT22;24915;50.858;4.376;2022-07-23T07:58:01;24.30;99.90
39189;DHT22;24915;50.858;4.376;2022-07-23T08:00:27;24.20;99.90
39189;DHT22;24915;50.858;4.376;2022-07-23T08:02:54;24.30;99.90
39189;DHT22;24915;50.858;4.376;2022-07-23T08:05:26;24.30;99.90
39189;DHT22;24915;50.858;4.376;2022-07-23T08:07:52;24.10;99.90
39189;DHT22;24915;50.858;4.376;2022-07-23T08:10:19;24.30;99.90
39189;DHT22;24915;50.858;4.376;2022-07-23T08:12:49;24.30;99.90
39189;DHT22;24915;50.858;4.376;2022-07-23T08:15:17;24.40;99.90
39189;DHT22;24915;50.858;4.376;2022-07-23T08:17:44;24.50;99.90
39189;DHT22;24915;50.858;4.376;2022-07-23T08:20:11;24.70;99.90
39189;DHT22;24915;50.858;4.376;2022-07-23T08:22:44;24.80;99.90
39189;DHT22;24915;50.858;4.376;2022-07-23T08:25:10;24.80;99.90
39189;DHT22;24915;50.858;4.376;2022-07-23T08:27:36;25.00;99.90
39189;DHT22;24915;50.858;4.376;2022-07-23T08:30:01;25.10;99.60
39189;DHT22;24915;50.858;4.376;2022-07-23T08:32:27;25.20;99.20
39189;DHT22;24915;50.858;4.376;2022-07-23T08:34:53;25.20;98.60
39189;DHT22;24915;50.858;4.376;2022-07-23T08:37:18;25.30;98.30
39189;DHT22;24915;50.858;4.376;2022-07-23T08:39:44;25.40;97.90
39189;DHT22;24915;50.858;4.376;2022-07-23T08:42:09;25.60;97.40
39189;DHT22;24915;50.858;4.376;2022-07-23T08:44:35;25.60;96.60
39189;DHT22;24915;50.858;4.376;2022-07-23T08:47:01;25.50;96.80
39189;DHT22;24915;50.858;4.376;2022-07-23T08:49:29;25.30;96.80
39189;DHT22;24915;50.858;4.376;2022-07-23T08:51:55;24.90;97.80
39189;DHT22;24915;50.858;4.376;2022-07-23T08:54:22;25.00;97.60
39189;DHT22;24915;50.858;4.376;2022-07-23T08:56:48;25.10;96.80
39189;DHT22;24915;50.858;4.376;2022-07-23T08:59:14;25.30;97.50
39189;DHT22;24915;50.858;4.376;2022-07-23T09:01:40;25.60;97.10
39189;DHT22;24915;50.858;4.376;2022-07-23T09:04:05;25.90;96.60
39189;DHT22;24915;50.858;4.376;2022-07-23T09:06:31;26.30;96.30
39189;DHT22;24915;50.858;4.376;2022-07-23T09:08:57;26.40;94.90
39189;DHT22;24915;50.858;4.376;2022-07-23T09:11:23;26.60;95.10
39189;DHT22;24915;50.858;4.376;2022-07-23T09:13:50;26.70;94.70
39189;DHT22;24915;50.858;4.376;2022-07-23T09:16:27;26.90;94.30
39189;DHT22;24915;50.858;4.376;2022-07-23T09:19:02;27.20;93.90
39189;DHT22;24915;50.858;4.376;2022-07-23T09:21:29;27.30;93.50
39189;DHT22;24915;50.858;4.376;2022-07-23T09:24:05;27.40;92.40
39189;DHT22;24915;50.858;4.376;2022-07-23T09:29:07;27.20;92.80
39189;DHT22;24915;50.858;4.376;2022-07-23T09:36:43;27.40;92.10
39189;DHT22;24915;50.858;4.376;2022-07-23T09:39:10;27.60;91.60
39189;DHT22;24915;50.858;4.376;2022-07-23T09:41:46;27.80;91.70
39189;DHT22;24915;50.858;4.376;2022-07-23T09:44:17;28.10;90.60
39189;DHT22;24915;50.858;4.376;2022-07-23T09:46:48;28.20;90.00
39189;DHT22;24915;50.858;4.376;2022-07-23T09:49:20;28.40;89.20
39189;DHT22;24915;50.858;4.376;2022-07-23T09:51:57;28.70;88.60
39189;DHT22;24915;50.858;4.376;2022-07-23T09:56:51;29.10;86.40
39189;DHT22;24915;50.858;4.376;2022-07-23T09:59:17;29.30;85.80
39189;DHT22;24915;50.858;4.376;2022-07-23T10:01:44;29.40;85.30
39189;DHT22;24915;50.858;4.376;2022-07-23T10:04:14;29.30;83.40
39189;DHT22;24915;50.858;4.376;2022-07-23T10:06:40;29.30;83.20
39189;DHT22;24915;50.858;4.376;2022-07-23T10:09:08;29.30;83.90
39189;DHT22;24915;50.858;4.376;2022-07-23T10:11:37;29.30;82.60
39189;DHT22;24915;50.858;4.376;2022-07-23T10:14:04;29.20;82.90
39189;DHT22;24915;50.858;4.376;2022-07-23T10:16:31;29.30;81.70
39189;DHT22;24915;50.858;4.376;2022-07-23T10:18:57;29.50;81.00
39189;DHT22;24915;50.858;4.376;2022-07-23T10:24:45;30.20;78.70
39189;DHT22;24915;50.858;4.376;2022-07-23T10:27:19;30.20;77.10
39189;DHT22;24915;50.858;4.376;2022-07-23T10:32:43;30.20;77.80
39189;DHT22;24915;50.858;4.376;2022-07-23T10:35:31;30.30;77.90
39189;DHT22;24915;50.858;4.376;2022-07-23T10:38:11;30.50;77.70
39189;DHT22;24915;50.858;4.376;2022-07-23T10:40:57;30.70;77.40
39189;DHT22;24915;50.858;4.376;2022-07-23T10:43:22;30.70;75.30
39189;DHT22;24915;50.858;4.376;2022-07-23T10:45:49;30.70;74.10
39189;DHT22;24915;50.858;4.376;2022-07-23T10:51:08;30.90;76.50
39189;DHT22;24915;50.858;4.376;2022-07-23T10:53:53;31.20;74.80
39189;DHT22;24915;50.858;4.376;2022-07-23T10:57:04;31.40;73.50
39189;DHT22;24915;50.858;4.376;2022-07-23T10:59:30;31.50;73.30
39189;DHT22;24915;50.858;4.376;2022-07-23T11:02:25;31.60;73.20
39189;DHT22;24915;50.858;4.376;2022-07-23T11:04:52;31.60;72.00
39189;DHT22;24915;50.858;4.376;2022-07-23T11:07:19;31.80;72.60
39189;DHT22;24915;50.858;4.376;2022-07-23T11:09:45;32.10;71.20
39189;DHT22;24915;50.858;4.376;2022-07-23T11:17:36;31.40;70.10
39189;DHT22;24915;50.858;4.376;2022-07-23T11:27:47;32.30;69.30
39189;DHT22;24915;50.858;4.376;2022-07-23T11:35:59;33.20;67.10
39189;DHT22;24915;50.858;4.376;2022-07-23T11:38:26;33.40;66.00
39189;DHT22;24915;50.858;4.376;2022-07-23T11:40:53;33.40;65.80
39189;DHT22;24915;50.858;4.376;2022-07-23T11:43:21;33.20;66.00
39189;DHT22;24915;50.858;4.376;2022-07-23T11:45:51;32.90;64.10
39189;DHT22;24915;50.858;4.376;2022-07-23T11:48:26;32.60;65.30
39189;DHT22;24915;50.858;4.376;2022-07-23T11:50:53;32.80;66.90
39189;DHT22;24915;50.858;4.376;2022-07-23T11:53:24;33.10;65.20
39189;DHT22;24915;50.858;4.376;2022-07-23T11:55:50;33.20;63.70
39189;DHT22;24915;50.858;4.376;2022-07-23T11:58:16;33.30;65.30
39189;DHT22;24915;50.858;4.376;2022-07-23T12:00:42;33.60;65.10
39189;DHT22;24915;50.858;4.376;2022-07-23T12:03:08;33.70;64.10
39189;DHT22;24915;50.858;4.376;2022-07-23T12:05:35;33.90;62.50
39189;DHT22;24915;50.858;4.376;2022-07-23T12:08:07;34.20;63.70
39189;DHT22;24915;50.858;4.376;2022-07-23T12:10:34;34.20;62.20
39189;DHT22;24915;50.858;4.376;2022-07-23T12:13:06;33.90;61.90
39189;DHT22;24915;50.858;4.376;2022-07-23T12:15:34;33.50;61.70
39189;DHT22;24915;50.858;4.376;2022-07-23T12:18:03;33.10;62.50
39189;DHT22;24915;50.858;4.376;2022-07-23T12:20:32;32.50;62.50
39189;DHT22;24915;50.858;4.376;2022-07-23T12:23:00;32.20;64.60
39189;DHT22;24915;50.858;4.376;2022-07-23T12:25:35;32.10;65.20
39189;DHT22;24915;50.858;4.376;2022-07-23T12:28:07;32.00;64.90
39189;DHT22;24915;50.858;4.376;2022-07-23T12:30:40;31.70;64.80
39189;DHT22;24915;50.858;4.376;2022-07-23T12:33:07;31.70;66.10
39189;DHT22;24915;50.858;4.376;2022-07-23T12:35:39;32.00;66.60
39189;DHT22;24915;50.858;4.376;2022-07-23T12:38:09;32.50;66.70
39189;DHT22;24915;50.858;4.376;2022-07-23T12:40:41;33.10;64.90
39189;DHT22;24915;50.858;4.376;2022-07-23T12:43:18;33.30;63.60
39189;DHT22;24915;50.858;4.376;2022-07-23T12:45:51;33.50;63.80
39189;DHT22;24915;50.858;4.376;2022-07-23T12:48:27;33.70;61.50
39189;DHT22;24915;50.858;4.376;2022-07-23T12:50:56;34.00;61.60
39189;DHT22;24915;50.858;4.376;2022-07-23T12:53:40;34.30;59.50
39189;DHT22;24915;50.858;4.376;2022-07-23T12:58:52;34.60;59.60
39189;DHT22;24915;50.858;4.376;2022-07-23T13:04:06;35.10;59.60
39189;DHT22;24915;50.858;4.376;2022-07-23T13:06:40;35.00;57.90
39189;DHT22;24915;50.858;4.376;2022-07-23T13:09:09;34.70;60.10
39189;DHT22;24915;50.858;4.376;2022-07-23T13:11:35;34.70;58.10
39189;DHT22;24915;50.858;4.376;2022-07-23T13:14:01;34.30;58.90
39189;DHT22;24915;50.858;4.376;2022-07-23T13:16:28;34.20;60.00
39189;DHT22;24915;50.858;4.376;2022-07-23T13:18:54;34.10;58.90
39189;DHT22;24915;50.858;4.376;2022-07-23T13:21:22;33.90;59.60
39189;DHT22;24915;50.858;4.376;2022-07-23T13:23:47;33.60;58.60
39189;DHT22;24915;50.858;4.376;2022-07-23T13:26:13;33.20;58.10
39189;DHT22;24915;50.858;4.376;2022-07-23T13:28:39;32.40;59.30
39189;DHT22;24915;50.858;4.376;2022-07-23T13:31:04;31.90;60.10
39189;DHT22;24915;50.858;4.376;2022-07-23T13:33:30;31.40;62.20
39189;DHT22;24915;50.858;4.376;2022-07-23T13:35:56;31.30;61.80
39189;DHT22;24915;50.858;4.376;2022-07-23T13:38:22;31.40;62.80
39189;DHT22;24915;50.858;4.376;2022-07-23T13:40:50;31.80;63.90
39189;DHT22;24915;50.858;4.376;2022-07-23T13:43:18;32.40;64.00
39189;DHT22;24915;50.858;4.376;2022-07-23T13:45:44;33.20;62.00
39189;DHT22;24915;50.858;4.376;2022-07-23T13:48:12;33.60;60.90
39189;DHT22;24915;50.858;4.376;2022-07-23T13:50:38;34.10;60.90
39189;DHT22;24915;50.858;4.376;2022-07-23T13:53:13;34.50;60.00
39189;DHT22;24915;50.858;4.376;2022-07-23T13:55:40;34.80;60.00
39189;DHT22;24915;50.858;4.376;2022-07-23T13:58:07;35.10;58.20
39189;DHT22;24915;50.858;4.376;2022-07-23T14:00:35;34.90;57.90
39189;DHT22;24915;50.858;4.376;2022-07-23T14:03:01;34.80;57.50
39189;DHT22;24915;50.858;4.376;2022-07-23T14:05:27;34.50;58.70
39189;DHT22;24915;50.858;4.376;2022-07-23T14:07:53;34.40;58.90
39189;DHT22;24915;50.858;4.376;2022-07-23T14:10:21;34.60;59.80
39189;DHT22;24915;50.858;4.376;2022-07-23T14:12:51;34.90;57.80
39189;DHT22;24915;50.858;4.376;2022-07-23T14:15:18;34.60;58.70
39189;DHT22;24915;50.858;4.376;2022-07-23T14:17:45;34.30;59.40
39189;DHT22;24915;50.858;4.376;2022-07-23T14:20:13;34.10;58.20
39189;DHT22;24915;50.858;4.376;2022-07-23T14:22:39;33.90;59.20
39189;DHT22;24915;50.858;4.376;2022-07-23T14:25:06;34.00;59.70
39189;DHT22;24915;50.858;4.376;2022-07-23T14:27:32;34.00;59.70
39189;DHT22;24915;50.858;4.376;2022-07-23T14:29:58;33.90;59.80
39189;DHT22;24915;50.858;4.376;2022-07-23T14:32:24;33.90;59.30
39189;DHT22;24915;50.858;4.376;2022-07-23T14:34:50;33.90;60.30
39189;DHT22;24915;50.858;4.376;2022-07-23T14:37:16;34.10;57.80
39189;DHT22;24915;50.858;4.376;2022-07-23T14:39:43;33.90;59.30
39189;DHT22;24915;50.858;4.376;2022-07-23T14:42:09;33.90;58.60
39189;DHT22;24915;50.858;4.376;2022-07-23T14:44:36;33.90;57.80
39189;DHT22;24915;50.858;4.376;2022-07-23T14:47:02;33.80;58.30
39189;DHT22;24915;50.858;4.376;2022-07-23T14:49:30;33.80;58.70
39189;DHT22;24915;50.858;4.376;2022-07-23T14:51:56;33.70;59.10
39189;DHT22;24915;50.858;4.376;2022-07-23T14:54:21;33.40;57.20
39189;DHT22;24915;50.858;4.376;2022-07-23T14:56:48;32.70;58.60
39189;DHT22;24915;50.858;4.376;2022-07-23T14:59:14;32.60;59.60
39189;DHT22;24915;50.858;4.376;2022-07-23T15:01:41;32.70;59.00
39189;DHT22;24915;50.858;4.376;2022-07-23T15:04:06;32.40;59.20
39189;DHT22;24915;50.858;4.376;2022-07-23T15:06:33;32.40;60.70
39189;DHT22;24915;50.858;4.376;2022-07-23T15:08:58;32.40;60.70
39189;DHT22;24915;50.858;4.376;2022-07-23T15:11:27;32.40;60.90
39189;DHT22;24915;50.858;4.376;2022-07-23T15:13:54;32.20;61.20
39189;DHT22;24915;50.858;4.376;2022-07-23T15:16:20;31.90;59.50
39189;DHT22;24915;50.858;4.376;2022-07-23T15:18:46;31.50;60.10
39189;DHT22;24915;50.858;4.376;2022-07-23T15:21:11;31.60;61.70
39189;DHT22;24915;50.858;4.376;2022-07-23T15:23:37;31.90;61.70
39189;DHT22;24915;50.858;4.376;2022-07-23T15:26:05;32.10;61.60
39189;DHT22;24915;50.858;4.376;2022-07-23T15:28:31;32.20;61.70
39189;DHT22;24915;50.858;4.376;2022-07-23T15:30:57;32.40;60.20
39189;DHT22;24915;50.858;4.376;2022-07-23T15:33:22;32.50;59.70
39189;DHT22;24915;50.858;4.376;2022-07-23T15:35:48;32.40;59.80
39189;DHT22;24915;50.858;4.376;2022-07-23T15:38:14;32.10;58.60
39189;DHT22;24915;50.858;4.376;2022-07-23T15:40:40;31.90;60.30
39189;DHT22;24915;50.858;4.376;2022-07-23T15:43:06;31.70;60.40
39189;DHT22;24915;50.858;4.376;2022-07-23T15:45:31;31.50;60.90
39189;DHT22;24915;50.858;4.376;2022-07-23T15:47:58;31.30;61.80
39189;DHT22;24915;50.858;4.376;2022-07-23T15:50:23;31.20;62.20
39189;DHT22;24915;50.858;4.376;2022-07-23T15:52:49;31.10;62.90
39189;DHT22;24915;50.858;4.376;2022-07-23T15:55:14;31.10;63.00
39189;DHT22;24915;50.858;4.376;2022-07-23T15:57:40;31.10;63.30
39189;DHT22;24915;50.858;4.376;2022-07-23T16:00:07;31.10;62.30
39189;DHT22;24915;50.858;4.376;2022-07-23T16:02:33;30.90;63.00
39189;DHT22;24915;50.858;4.376;2022-07-23T16:04:59;30.80;62.70
39189;DHT22;24915;50.858;4.376;2022-07-23T16:07:25;30.80;63.30
39189;DHT22;24915;50.858;4.376;2022-07-23T16:09:50;30.60;63.60
39189;DHT22;24915;50.858;4.376;2022-07-23T16:12:16;30.40;64.60